createdAt,value
2022-09-26T00:00:22.679Z,100691.66
2022-09-26T00:05:24.340Z,100673.13
2022-09-26T00:10:25.991Z,100653.97
2022-09-26T00:15:27.588Z,100651.84
2022-09-26T00:20:29.149Z,100632.47
2022-09-26T00:25:30.835Z,100629.69
2022-09-26T00:30:32.525Z,100616.31
2022-09-26T00:35:34.289Z,100603.31
2022-09-26T00:40:36.040Z,100589.69
2022-09-26T00:45:37.743Z,100571.59
2022-09-26T00:50:48.634Z,100559.69
2022-09-26T00:55:55.995Z,100541.81
2022-09-26T01:01:00.925Z,100530.94
2022-09-26T01:06:03.183Z,100516.28
2022-09-26T01:11:05.792Z,100515.00
2022-09-26T01:16:08.981Z,100508.16
2022-09-26T01:21:42.964Z,100487.31
2022-09-26T01:27:11.897Z,100465.00
2022-09-26T01:32:54.362Z,100462.22
2022-09-26T01:38:48.075Z,100453.91
2022-09-26T01:44:01.407Z,100445.81
2022-09-26T01:49:18.455Z,100427.31
2022-09-26T01:54:27.005Z,100416.25
2022-09-26T01:59:34.687Z,100406.88
2022-09-26T02:04:41.935Z,100400.50
2022-09-26T02:09:48.991Z,100396.25
2022-09-26T02:14:54.472Z,100376.25
2022-09-26T02:20:03.319Z,100369.03
2022-09-26T02:25:05.423Z,100364.34
2022-09-26T02:30:07.768Z,100351.16
2022-09-26T02:35:30.123Z,100324.59
2022-09-26T02:40:51.751Z,100326.47
2022-09-26T02:46:24.472Z,100313.31
2022-09-26T02:51:38.318Z,100302.69
2022-09-26T02:57:10.395Z,100290.38
2022-09-26T03:02:19.741Z,100278.03
2022-09-26T03:07:51.840Z,100274.84
2022-09-26T03:12:55.159Z,100260.63
2022-09-26T03:17:59.287Z,100240.00
2022-09-26T03:23:03.146Z,100224.25
2022-09-26T03:28:06.103Z,100225.53
2022-09-26T03:33:09.106Z,100205.75
2022-09-26T03:38:14.283Z,100199.59
2022-09-26T03:43:24.316Z,100185.59
2022-09-26T03:48:27.754Z,100174.28
2022-09-26T03:53:32.579Z,100156.03
2022-09-26T03:58:36.371Z,100144.38
2022-09-26T04:03:49.945Z,100134.16
2022-09-26T04:08:53.391Z,100122.06
2022-09-26T04:13:59.569Z,100107.19
2022-09-26T04:19:09.409Z,100096.78
2022-09-26T04:24:16.279Z,100094.00
2022-09-26T04:29:18.083Z,100088.50
2022-09-26T04:34:45.947Z,100066.41
2022-09-26T04:39:48.472Z,100064.28
2022-09-26T04:44:50.163Z,100045.19
2022-09-26T04:49:52.068Z,100028.63
2022-09-26T04:54:53.782Z,100031.19
2022-09-26T04:59:55.786Z,100011.22
2022-09-26T05:05:00.666Z,99995.13
2022-09-26T05:10:02.822Z,99984.53
2022-09-26T05:15:10.430Z,99965.63
2022-09-26T05:20:12.943Z,99956.09
2022-09-26T05:25:39.796Z,99942.31
2022-09-26T05:30:41.632Z,99938.72
2022-09-26T05:35:44.043Z,99925.13
2022-09-26T05:40:58.131Z,99924.09
2022-09-26T05:46:05.295Z,99917.72
2022-09-26T05:51:14.808Z,99902.22
2022-09-26T05:56:19.768Z,99885.06
2022-09-26T06:01:40.265Z,99895.22
2022-09-26T06:06:56.081Z,99884.00
2022-09-26T06:11:57.816Z,99874.22
2022-09-26T06:16:59.733Z,99875.50
2022-09-26T06:22:01.506Z,99869.59
2022-09-26T06:27:04.511Z,99853.44
2022-09-26T06:32:06.221Z,99835.44
2022-09-26T06:37:43.360Z,99823.78
2022-09-26T06:42:46.805Z,99810.63
2022-09-26T06:48:02.710Z,99802.16
2022-09-26T06:53:09.221Z,99791.09
2022-09-26T06:58:10.974Z,99779.22
2022-09-26T07:03:26.623Z,99763.56
2022-09-26T07:09:01.034Z,99757.22
2022-09-26T07:14:19.808Z,99755.94
2022-09-26T07:19:36.839Z,99735.16
2022-09-26T07:24:42.657Z,99729.84
2022-09-26T07:30:05.208Z,99742.78
2022-09-26T07:35:17.237Z,99740.03
2022-09-26T07:40:21.200Z,99734.94
2022-09-26T07:45:42.887Z,99729.91
2022-09-26T07:50:46.396Z,99726.28
2022-09-26T07:56:12.152Z,99728.22
2022-09-26T08:01:52.801Z,99715.47
2022-09-26T08:07:08.566Z,99709.97
2022-09-26T08:12:15.136Z,99694.50
2022-09-26T08:17:24.068Z,99694.91
2022-09-26T08:22:26.950Z,99676.31
2022-09-26T08:27:33.477Z,99670.81
2022-09-26T08:32:35.256Z,99671.44
2022-09-26T08:37:39.491Z,99661.44
2022-09-26T08:43:38.716Z,99646.84
2022-09-26T08:49:17.848Z,99637.69
2022-09-26T08:54:37.759Z,99624.59
2022-09-26T08:59:42.116Z,99613.53
2022-09-26T09:04:57.759Z,99613.13
2022-09-26T09:10:06.315Z,99604.66
2022-09-26T09:15:58.482Z,99621.19
2022-09-26T09:21:10.499Z,99626.25
2022-09-26T09:32:22.950Z,99612.03
2022-09-26T09:37:43.124Z,99607.81
2022-09-26T09:43:12.685Z,99613.97
2022-09-26T09:48:15.736Z,99599.97
2022-09-26T09:53:26.888Z,99605.06
2022-09-26T09:58:39.034Z,99608.81
2022-09-26T10:04:27.778Z,99601.97
2022-09-26T10:09:40.697Z,99571.38
2022-09-26T10:15:19.848Z,99581.91
2022-09-26T10:20:43.006Z,99572.03
2022-09-26T10:25:48.532Z,99563.03
2022-09-26T10:30:55.578Z,99552.69
2022-09-26T10:36:09.003Z,99562.41
2022-09-26T10:41:23.866Z,99553.94
2022-09-26T10:46:27.840Z,99555.63
2022-09-26T10:51:55.483Z,99546.59
2022-09-26T10:56:59.256Z,99548.28
2022-09-26T11:02:05.573Z,99555.50
2022-09-26T11:07:11.107Z,99542.66
2022-09-26T11:12:25.468Z,99551.13
2022-09-26T11:17:49.386Z,99544.75
2022-09-26T11:23:15.197Z,99543.97
2022-09-26T11:28:36.219Z,99545.56
2022-09-26T11:34:04.489Z,99548.63
2022-09-26T11:39:25.200Z,99546.72
2022-09-26T11:44:51.255Z,99541.94
2022-09-26T11:50:23.927Z,99534.50
2022-09-26T11:56:19.958Z,99537.34
2022-09-26T12:02:03.967Z,99544.72
2022-09-26T12:07:33.618Z,99548.09
2022-09-26T12:12:56.659Z,99553.72
2022-09-26T12:18:07.416Z,99544.88
2022-09-26T12:23:17.871Z,99532.16
2022-09-26T12:28:50.414Z,99530.09
2022-09-26T12:34:31.817Z,99536.47
2022-09-26T12:39:52.289Z,99526.88
2022-09-26T12:45:30.370Z,99510.81
2022-09-26T12:50:53.001Z,99507.66
2022-09-26T12:56:08.498Z,99494.31
2022-09-26T13:01:32.492Z,99492.69
2022-09-26T13:07:18.310Z,99491.94
2022-09-26T13:12:31.065Z,99484.72
2022-09-26T13:17:41.842Z,99488.53
2022-09-26T13:22:53.060Z,99486.59
2022-09-26T13:28:05.282Z,99471.94
2022-09-26T13:33:31.876Z,99469.50
2022-09-26T13:38:34.051Z,99472.19
2022-09-26T13:43:53.581Z,99474.97
2022-09-26T13:49:27.540Z,99468.47
2022-09-26T13:54:55.027Z,99461.72
2022-09-26T13:59:56.895Z,99461.47
2022-09-26T14:05:01.234Z,99466.88
2022-09-26T14:10:05.827Z,99473.84
2022-09-26T14:15:47.795Z,99467.34
2022-09-26T14:21:02.750Z,99477.84
2022-09-26T14:26:07.122Z,99466.63
2022-09-26T14:31:37.355Z,99478.94
2022-09-26T14:36:39.541Z,99474.19
2022-09-26T14:41:41.587Z,99461.69
2022-09-26T14:46:43.772Z,99452.31
2022-09-26T14:51:59.409Z,99450.38
2022-09-26T14:57:04.343Z,99449.44
2022-09-26T15:02:21.808Z,99452.31
2022-09-26T15:07:45.388Z,99457.59
2022-09-26T15:13:02.983Z,99454.03
2022-09-26T15:18:18.323Z,99458.00
2022-09-26T15:23:28.006Z,99452.31
2022-09-26T15:28:34.626Z,99449.78
2022-09-26T15:33:39.067Z,99450.06
2022-09-26T15:38:45.123Z,99441.25
2022-09-26T15:43:48.800Z,99435.47
2022-09-26T15:48:52.000Z,99439.69
2022-09-26T15:53:58.381Z,99439.59
2022-09-26T15:59:17.873Z,99434.50
2022-09-26T16:04:27.955Z,99431.16
2022-09-26T16:09:40.144Z,99444.50
2022-09-26T16:14:49.181Z,99445.81
2022-09-26T16:19:54.285Z,99445.56
2022-09-26T16:25:17.435Z,99453.47
2022-09-26T16:30:27.869Z,99453.34
2022-09-26T16:35:33.494Z,99453.22
2022-09-26T16:40:35.820Z,99465.44
2022-09-26T16:45:49.824Z,99463.19
2022-09-26T16:51:13.665Z,99453.03
2022-09-26T16:56:19.206Z,99467.59
2022-09-26T17:01:40.786Z,99466.88
2022-09-26T17:06:42.635Z,99458.19
2022-09-26T17:11:49.186Z,99466.00
2022-09-26T17:16:55.321Z,99462.16
2022-09-26T17:21:57.211Z,99483.91
2022-09-26T17:27:14.292Z,99500.31
2022-09-26T17:32:25.207Z,99483.63
2022-09-26T17:37:27.671Z,99472.22
2022-09-26T17:42:38.858Z,99467.06
2022-09-26T17:47:40.852Z,99463.31
2022-09-26T17:52:42.691Z,99466.19
2022-09-26T17:57:44.453Z,99461.81
2022-09-26T18:02:55.285Z,99458.22
2022-09-26T18:08:21.198Z,99489.03
2022-09-26T18:13:38.175Z,99503.63
2022-09-26T18:18:39.844Z,99506.53
2022-09-26T18:23:50.337Z,99507.91
2022-09-26T18:28:52.589Z,99518.06
2022-09-26T18:33:56.006Z,99525.88
2022-09-26T18:38:57.756Z,99528.72
2022-09-26T18:44:02.115Z,99541.91
2022-09-26T18:49:06.380Z,99538.22
2022-09-26T18:54:17.433Z,99544.75
2022-09-26T18:59:19.496Z,99551.03
2022-09-26T19:04:22.935Z,99566.00
2022-09-26T19:09:28.024Z,99574.75
2022-09-26T19:14:31.374Z,99584.88
2022-09-26T19:19:33.002Z,99584.31
2022-09-26T19:24:48.880Z,99576.13
2022-09-26T19:29:59.088Z,99581.31
2022-09-26T19:35:02.880Z,99576.44
2022-09-26T19:40:14.823Z,99573.19
2022-09-26T19:45:18.273Z,99570.56
2022-09-26T19:50:25.787Z,99576.72
2022-09-26T19:55:29.672Z,99586.63
2022-09-26T20:00:36.985Z,99581.44
2022-09-26T20:05:39.416Z,99578.34
2022-09-26T20:10:41.216Z,99571.50
2022-09-26T20:15:43.767Z,99577.50
2022-09-26T20:20:50.090Z,99571.13
2022-09-26T20:25:53.918Z,99565.47
2022-09-26T20:30:58.906Z,99555.75
2022-09-26T20:36:04.663Z,99562.69
2022-09-26T20:41:24.191Z,99558.44
2022-09-26T20:46:28.261Z,99554.06
2022-09-26T20:51:34.457Z,99544.81
2022-09-26T20:56:36.894Z,99544.00
2022-09-26T21:01:38.513Z,99546.44
2022-09-26T21:06:40.870Z,99559.59
2022-09-26T21:11:50.476Z,99557.81
2022-09-26T21:16:52.631Z,99557.16
2022-09-26T21:21:59.226Z,99557.56
2022-09-26T21:27:14.344Z,99550.69
2022-09-26T21:32:18.676Z,99552.84
2022-09-26T21:37:20.253Z,99548.41
2022-09-26T21:42:21.999Z,99545.34
2022-09-26T21:47:24.661Z,99557.56
2022-09-26T21:52:35.715Z,99565.47
2022-09-26T21:57:42.151Z,99552.13
2022-09-26T22:02:43.880Z,99564.59
2022-09-26T22:07:45.500Z,99550.81
2022-09-26T22:12:47.066Z,99545.28
2022-09-26T22:17:48.887Z,99545.75
2022-09-26T22:22:50.636Z,99543.09
2022-09-26T22:27:52.279Z,99543.94
2022-09-26T22:32:53.956Z,99534.72
2022-09-26T22:37:56.730Z,99536.22
2022-09-26T22:42:58.329Z,99534.63
2022-09-26T22:48:00.253Z,99537.94
2022-09-26T22:53:02.945Z,99542.06
2022-09-26T22:58:04.716Z,99544.13
2022-09-26T23:03:06.347Z,99542.19
2022-09-26T23:08:07.931Z,99549.13
2022-09-26T23:13:09.582Z,99542.69
2022-09-26T23:18:12.581Z,99542.28
2022-09-26T23:23:14.924Z,99553.97
2022-09-26T23:28:17.579Z,99551.47
2022-09-26T23:33:19.288Z,99554.97
2022-09-26T23:38:20.904Z,99551.88
2022-09-26T23:43:23.146Z,99558.88
2022-09-26T23:48:24.780Z,99558.13
2022-09-26T23:53:26.746Z,99558.06
2022-09-26T23:58:28.599Z,99552.41
